sensor_id;sensor_type;location;lat;lon;timestamp;P1;durP1;ratioP1;P2;durP2;ratioP2
1775;SDS011;885;42.626;23.200;2023-08-06T00:00:38;6.03;;;4.50;;
1775;SDS011;885;42.626;23.200;2023-08-06T00:03:04;4.63;;;4.13;;
1775;SDS011;885;42.626;23.200;2023-08-06T00:05:31;5.60;;;4.47;;
1775;SDS011;885;42.626;23.200;2023-08-06T00:07:58;5.27;;;4.77;;
1775;SDS011;885;42.626;23.200;2023-08-06T00:10:26;7.30;;;4.90;;
1775;SDS011;885;42.626;23.200;2023-08-06T00:12:53;8.50;;;4.50;;
1775;SDS011;885;42.626;23.200;2023-08-06T00:15:20;5.47;;;3.90;;
1775;SDS011;885;42.626;23.200;2023-08-06T00:17:46;5.03;;;4.53;;
1775;SDS011;885;42.626;23.200;2023-08-06T00:20:13;6.13;;;4.40;;
1775;SDS011;885;42.626;23.200;2023-08-06T00:22:40;9.50;;;4.30;;
1775;SDS011;885;42.626;23.200;2023-08-06T00:25:07;5.10;;;4.60;;
1775;SDS011;885;42.626;23.200;2023-08-06T00:27:36;4.87;;;4.37;;
1775;SDS011;885;42.626;23.200;2023-08-06T00:30:04;5.60;;;5.10;;
1775;SDS011;885;42.626;23.200;2023-08-06T00:32:31;9.27;;;6.97;;
1775;SDS011;885;42.626;23.200;2023-08-06T00:34:58;5.60;;;4.97;;
1775;SDS011;885;42.626;23.200;2023-08-06T00:37:25;6.40;;;5.40;;
1775;SDS011;885;42.626;23.200;2023-08-06T00:39:52;5.80;;;4.43;;
1775;SDS011;885;42.626;23.200;2023-08-06T00:42:18;6.77;;;5.00;;
1775;SDS011;885;42.626;23.200;2023-08-06T00:44:47;6.43;;;5.13;;
1775;SDS011;885;42.626;23.200;2023-08-06T00:47:14;6.43;;;5.20;;
1775;SDS011;885;42.626;23.200;2023-08-06T00:49:42;5.23;;;4.73;;
1775;SDS011;885;42.626;23.200;2023-08-06T00:52:09;6.53;;;5.40;;
1775;SDS011;885;42.626;23.200;2023-08-06T00:54:36;5.90;;;5.30;;
1775;SDS011;885;42.626;23.200;2023-08-06T00:57:03;6.40;;;5.80;;
1775;SDS011;885;42.626;23.200;2023-08-06T00:59:31;5.60;;;5.00;;
1775;SDS011;885;42.626;23.200;2023-08-06T01:01:59;6.00;;;5.30;;
1775;SDS011;885;42.626;23.200;2023-08-06T01:04:26;5.67;;;5.17;;
1775;SDS011;885;42.626;23.200;2023-08-06T01:06:55;10.20;;;6.00;;
1775;SDS011;885;42.626;23.200;2023-08-06T01:09:33;6.60;;;6.00;;
1775;SDS011;885;42.626;23.200;2023-08-06T01:12:09;6.23;;;5.67;;
1775;SDS011;885;42.626;23.200;2023-08-06T01:14:45;6.10;;;5.50;;
1775;SDS011;885;42.626;23.200;2023-08-06T01:17:21;5.70;;;4.80;;
1775;SDS011;885;42.626;23.200;2023-08-06T01:19:51;6.27;;;5.20;;
1775;SDS011;885;42.626;23.200;2023-08-06T01:22:20;5.37;;;4.80;;
1775;SDS011;885;42.626;23.200;2023-08-06T01:24:48;6.20;;;5.60;;
1775;SDS011;885;42.626;23.200;2023-08-06T01:27:17;8.53;;;4.87;;
1775;SDS011;885;42.626;23.200;2023-08-06T01:29:53;7.67;;;6.43;;
1775;SDS011;885;42.626;23.200;2023-08-06T01:32:24;5.10;;;4.60;;
1775;SDS011;885;42.626;23.200;2023-08-06T01:34:52;5.97;;;5.37;;
1775;SDS011;885;42.626;23.200;2023-08-06T01:37:23;6.40;;;5.80;;
1775;SDS011;885;42.626;23.200;2023-08-06T01:39:50;7.13;;;6.43;;
1775;SDS011;885;42.626;23.200;2023-08-06T01:42:16;7.03;;;5.60;;
1775;SDS011;885;42.626;23.200;2023-08-06T01:44:43;6.43;;;5.30;;
1775;SDS011;885;42.626;23.200;2023-08-06T01:47:10;7.43;;;5.57;;
1775;SDS011;885;42.626;23.200;2023-08-06T01:49:37;6.27;;;5.57;;
1775;SDS011;885;42.626;23.200;2023-08-06T01:52:04;7.30;;;5.60;;
1775;SDS011;885;42.626;23.200;2023-08-06T01:54:32;6.50;;;5.90;;
1775;SDS011;885;42.626;23.200;2023-08-06T01:56:59;5.10;;;4.60;;
1775;SDS011;885;42.626;23.200;2023-08-06T01:59:26;5.87;;;5.17;;
1775;SDS011;885;42.626;23.200;2023-08-06T02:01:52;5.87;;;5.27;;
1775;SDS011;885;42.626;23.200;2023-08-06T02:04:19;5.60;;;4.80;;
1775;SDS011;885;42.626;23.200;2023-08-06T02:06:46;6.37;;;5.53;;
1775;SDS011;885;42.626;23.200;2023-08-06T02:09:13;5.10;;;4.60;;
1775;SDS011;885;42.626;23.200;2023-08-06T02:11:41;7.30;;;5.40;;
1775;SDS011;885;42.626;23.200;2023-08-06T02:14:08;6.40;;;5.70;;
1775;SDS011;885;42.626;23.200;2023-08-06T02:16:34;7.13;;;5.30;;
1775;SDS011;885;42.626;23.200;2023-08-06T02:19:01;8.70;;;5.83;;
1775;SDS011;885;42.626;23.200;2023-08-06T02:21:28;7.23;;;5.30;;
1775;SDS011;885;42.626;23.200;2023-08-06T02:23:55;10.57;;;6.70;;
1775;SDS011;885;42.626;23.200;2023-08-06T02:26:22;6.63;;;4.63;;
1775;SDS011;885;42.626;23.200;2023-08-06T02:28:50;6.03;;;4.57;;
1775;SDS011;885;42.626;23.200;2023-08-06T02:31:17;7.43;;;5.17;;
1775;SDS011;885;42.626;23.200;2023-08-06T02:33:43;6.33;;;5.53;;
1775;SDS011;885;42.626;23.200;2023-08-06T02:36:10;6.27;;;5.43;;
1775;SDS011;885;42.626;23.200;2023-08-06T02:38:37;6.80;;;4.43;;
1775;SDS011;885;42.626;23.200;2023-08-06T02:41:03;5.37;;;4.90;;
1775;SDS011;885;42.626;23.200;2023-08-06T02:43:31;5.87;;;5.00;;
1775;SDS011;885;42.626;23.200;2023-08-06T02:45:59;5.23;;;4.40;;
1775;SDS011;885;42.626;23.200;2023-08-06T02:48:27;9.07;;;3.90;;
1775;SDS011;885;42.626;23.200;2023-08-06T02:50:56;4.17;;;3.77;;
1775;SDS011;885;42.626;23.200;2023-08-06T02:53:24;5.13;;;4.03;;
1775;SDS011;885;42.626;23.200;2023-08-06T02:55:50;6.93;;;5.00;;
1775;SDS011;885;42.626;23.200;2023-08-06T02:58:17;7.20;;;4.90;;
1775;SDS011;885;42.626;23.200;2023-08-06T03:00:47;6.60;;;6.00;;
1775;SDS011;885;42.626;23.200;2023-08-06T03:03:27;7.83;;;5.30;;
1775;SDS011;885;42.626;23.200;2023-08-06T03:05:54;5.20;;;4.70;;
1775;SDS011;885;42.626;23.200;2023-08-06T03:08:21;6.17;;;5.57;;
1775;SDS011;885;42.626;23.200;2023-08-06T03:10:51;6.03;;;5.43;;
1775;SDS011;885;42.626;23.200;2023-08-06T03:13:19;8.43;;;5.63;;
1775;SDS011;885;42.626;23.200;2023-08-06T03:15:52;5.97;;;4.60;;
1775;SDS011;885;42.626;23.200;2023-08-06T03:18:21;9.83;;;4.63;;
1775;SDS011;885;42.626;23.200;2023-08-06T03:20:48;6.47;;;5.30;;
1775;SDS011;885;42.626;23.200;2023-08-06T03:23:15;4.80;;;4.30;;
1775;SDS011;885;42.626;23.200;2023-08-06T03:25:42;7.03;;;4.73;;
1775;SDS011;885;42.626;23.200;2023-08-06T03:28:08;5.27;;;4.77;;
1775;SDS011;885;42.626;23.200;2023-08-06T03:30:35;5.90;;;5.20;;
1775;SDS011;885;42.626;23.200;2023-08-06T03:33:02;5.13;;;4.63;;
1775;SDS011;885;42.626;23.200;2023-08-06T03:35:31;7.00;;;5.17;;
1775;SDS011;885;42.626;23.200;2023-08-06T03:37:58;5.27;;;4.77;;
1775;SDS011;885;42.626;23.200;2023-08-06T03:40:24;7.60;;;6.90;;
1775;SDS011;885;42.626;23.200;2023-08-06T03:42:51;6.53;;;5.93;;
1775;SDS011;885;42.626;23.200;2023-08-06T03:45:18;7.97;;;6.40;;
1775;SDS011;885;42.626;23.200;2023-08-06T03:47:45;8.00;;;7.20;;
1775;SDS011;885;42.626;23.200;2023-08-06T03:50:11;9.07;;;7.00;;
1775;SDS011;885;42.626;23.200;2023-08-06T03:52:40;9.40;;;8.00;;
1775;SDS011;885;42.626;23.200;2023-08-06T03:55:06;7.90;;;7.10;;
1775;SDS011;885;42.626;23.200;2023-08-06T03:57:33;9.63;;;7.67;;
1775;SDS011;885;42.626;23.200;2023-08-06T04:00:00;9.10;;;7.63;;
1775;SDS011;885;42.626;23.200;2023-08-06T04:02:28;7.80;;;7.03;;
1775;SDS011;885;42.626;23.200;2023-08-06T04:04:55;9.53;;;8.40;;
1775;SDS011;885;42.626;23.200;2023-08-06T04:07:22;9.00;;;8.10;;
1775;SDS011;885;42.626;23.200;2023-08-06T04:09:54;9.07;;;7.30;;
1775;SDS011;885;42.626;23.200;2023-08-06T04:12:21;8.83;;;7.10;;
1775;SDS011;885;42.626;23.200;2023-08-06T04:14:48;10.00;;;7.03;;
1775;SDS011;885;42.626;23.200;2023-08-06T04:17:15;8.93;;;7.37;;
1775;SDS011;885;42.626;23.200;2023-08-06T04:19:45;8.20;;;7.10;;
1775;SDS011;885;42.626;23.200;2023-08-06T04:22:12;9.23;;;8.17;;
1775;SDS011;885;42.626;23.200;2023-08-06T04:24:39;8.20;;;7.33;;
1775;SDS011;885;42.626;23.200;2023-08-06T04:27:07;8.40;;;7.60;;
1775;SDS011;885;42.626;23.200;2023-08-06T04:29:34;13.67;;;8.03;;
1775;SDS011;885;42.626;23.200;2023-08-06T04:32:03;8.17;;;7.37;;
1775;SDS011;885;42.626;23.200;2023-08-06T04:34:32;11.03;;;8.30;;
1775;SDS011;885;42.626;23.200;2023-08-06T04:36:59;7.77;;;6.97;;
1775;SDS011;885;42.626;23.200;2023-08-06T04:39:26;9.17;;;8.30;;
1775;SDS011;885;42.626;23.200;2023-08-06T04:41:53;8.60;;;7.70;;
1775;SDS011;885;42.626;23.200;2023-08-06T04:44:21;8.77;;;7.53;;
1775;SDS011;885;42.626;23.200;2023-08-06T04:46:48;9.30;;;7.20;;
1775;SDS011;885;42.626;23.200;2023-08-06T04:49:15;9.37;;;7.20;;
1775;SDS011;885;42.626;23.200;2023-08-06T04:51:42;8.17;;;7.37;;
1775;SDS011;885;42.626;23.200;2023-08-06T04:54:09;8.93;;;7.93;;
1775;SDS011;885;42.626;23.200;2023-08-06T04:56:36;8.30;;;7.50;;
1775;SDS011;885;42.626;23.200;2023-08-06T04:59:03;7.83;;;7.13;;
1775;SDS011;885;42.626;23.200;2023-08-06T05:01:31;8.23;;;7.30;;
1775;SDS011;885;42.626;23.200;2023-08-06T05:03:58;8.50;;;7.70;;
1775;SDS011;885;42.626;23.200;2023-08-06T05:06:26;8.23;;;7.30;;
1775;SDS011;885;42.626;23.200;2023-08-06T05:08:53;9.70;;;8.80;;
1775;SDS011;885;42.626;23.200;2023-08-06T05:11:20;9.70;;;8.70;;
1775;SDS011;885;42.626;23.200;2023-08-06T05:13:46;10.13;;;9.13;;
1775;SDS011;885;42.626;23.200;2023-08-06T05:16:13;12.67;;;8.97;;
1775;SDS011;885;42.626;23.200;2023-08-06T05:18:41;9.50;;;8.60;;
1775;SDS011;885;42.626;23.200;2023-08-06T05:21:08;10.73;;;9.63;;
1775;SDS011;885;42.626;23.200;2023-08-06T05:23:36;11.17;;;10.00;;
1775;SDS011;885;42.626;23.200;2023-08-06T05:26:03;10.77;;;9.67;;
1775;SDS011;885;42.626;23.200;2023-08-06T05:28:30;9.30;;;8.40;;
1775;SDS011;885;42.626;23.200;2023-08-06T05:30:56;10.00;;;9.00;;
1775;SDS011;885;42.626;23.200;2023-08-06T05:33:23;10.17;;;9.07;;
1775;SDS011;885;42.626;23.200;2023-08-06T05:35:52;9.13;;;8.33;;
1775;SDS011;885;42.626;23.200;2023-08-06T05:38:21;10.00;;;9.00;;
1775;SDS011;885;42.626;23.200;2023-08-06T05:40:48;10.20;;;9.30;;
1775;SDS011;885;42.626;23.200;2023-08-06T05:43:15;9.70;;;8.80;;
1775;SDS011;885;42.626;23.200;2023-08-06T05:45:44;9.50;;;8.50;;
1775;SDS011;885;42.626;23.200;2023-08-06T05:48:11;11.07;;;9.60;;
1775;SDS011;885;42.626;23.200;2023-08-06T05:50:38;10.97;;;9.87;;
1775;SDS011;885;42.626;23.200;2023-08-06T05:53:06;9.80;;;8.90;;
1775;SDS011;885;42.626;23.200;2023-08-06T05:55:33;15.23;;;13.20;;
1775;SDS011;885;42.626;23.200;2023-08-06T05:58:00;18.23;;;15.10;;
1775;SDS011;885;42.626;23.200;2023-08-06T06:00:27;25.63;;;18.13;;
1775;SDS011;885;42.626;23.200;2023-08-06T06:02:54;23.33;;;17.77;;
1775;SDS011;885;42.626;23.200;2023-08-06T06:05:21;22.10;;;18.50;;
1775;SDS011;885;42.626;23.200;2023-08-06T06:07:48;25.30;;;18.13;;
1775;SDS011;885;42.626;23.200;2023-08-06T06:10:16;23.67;;;18.37;;
1775;SDS011;885;42.626;23.200;2023-08-06T06:12:43;19.40;;;16.10;;
1775;SDS011;885;42.626;23.200;2023-08-06T06:15:10;20.53;;;16.50;;
1775;SDS011;885;42.626;23.200;2023-08-06T06:17:37;18.33;;;15.87;;
1775;SDS011;885;42.626;23.200;2023-08-06T06:20:04;17.90;;;15.93;;
1775;SDS011;885;42.626;23.200;2023-08-06T06:22:32;18.30;;;15.90;;
1775;SDS011;885;42.626;23.200;2023-08-06T06:24:58;20.00;;;16.60;;
1775;SDS011;885;42.626;23.200;2023-08-06T06:27:27;17.80;;;15.50;;
1775;SDS011;885;42.626;23.200;2023-08-06T06:29:53;23.70;;;15.57;;
1775;SDS011;885;42.626;23.200;2023-08-06T06:32:21;15.93;;;14.30;;
1775;SDS011;885;42.626;23.200;2023-08-06T06:34:47;12.63;;;11.33;;
1775;SDS011;885;42.626;23.200;2023-08-06T06:37:15;13.50;;;12.10;;
1775;SDS011;885;42.626;23.200;2023-08-06T06:39:41;12.77;;;11.20;;
1775;SDS011;885;42.626;23.200;2023-08-06T06:42:09;13.50;;;11.80;;
1775;SDS011;885;42.626;23.200;2023-08-06T06:44:37;11.30;;;10.20;;
1775;SDS011;885;42.626;23.200;2023-08-06T06:47:07;11.80;;;10.50;;
1775;SDS011;885;42.626;23.200;2023-08-06T06:49:33;11.27;;;9.87;;
1775;SDS011;885;42.626;23.200;2023-08-06T06:52:00;18.13;;;11.53;;
1775;SDS011;885;42.626;23.200;2023-08-06T06:54:27;12.40;;;9.80;;
1775;SDS011;885;42.626;23.200;2023-08-06T06:56:55;11.43;;;10.23;;
1775;SDS011;885;42.626;23.200;2023-08-06T06:59:22;11.20;;;9.17;;
1775;SDS011;885;42.626;23.200;2023-08-06T07:01:50;11.53;;;10.33;;
1775;SDS011;885;42.626;23.200;2023-08-06T07:04:17;12.77;;;11.37;;
1775;SDS011;885;42.626;23.200;2023-08-06T07:06:44;12.60;;;10.97;;
1775;SDS011;885;42.626;23.200;2023-08-06T07:09:10;14.70;;;11.23;;
1775;SDS011;885;42.626;23.200;2023-08-06T07:11:37;12.57;;;11.27;;
1775;SDS011;885;42.626;23.200;2023-08-06T07:14:08;11.97;;;10.80;;
1775;SDS011;885;42.626;23.200;2023-08-06T07:16:35;9.73;;;8.80;;
1775;SDS011;885;42.626;23.200;2023-08-06T07:19:03;11.63;;;10.03;;
1775;SDS011;885;42.626;23.200;2023-08-06T07:21:30;10.37;;;8.83;;
1775;SDS011;885;42.626;23.200;2023-08-06T07:23:57;8.40;;;7.57;;
1775;SDS011;885;42.626;23.200;2023-08-06T07:26:25;12.57;;;9.03;;
1775;SDS011;885;42.626;23.200;2023-08-06T07:28:52;8.93;;;7.03;;
1775;SDS011;885;42.626;23.200;2023-08-06T07:31:18;6.70;;;6.10;;
1775;SDS011;885;42.626;23.200;2023-08-06T07:33:45;8.70;;;7.90;;
1775;SDS011;885;42.626;23.200;2023-08-06T07:36:14;7.67;;;6.90;;
1775;SDS011;885;42.626;23.200;2023-08-06T07:38:41;7.53;;;6.80;;
1775;SDS011;885;42.626;23.200;2023-08-06T07:41:08;6.90;;;6.20;;
1775;SDS011;885;42.626;23.200;2023-08-06T07:43:35;7.93;;;6.80;;
1775;SDS011;885;42.626;23.200;2023-08-06T07:46:02;8.10;;;7.40;;
1775;SDS011;885;42.626;23.200;2023-08-06T07:48:30;7.80;;;7.10;;
1775;SDS011;885;42.626;23.200;2023-08-06T07:50:57;6.70;;;6.10;;
1775;SDS011;885;42.626;23.200;2023-08-06T07:53:26;6.80;;;6.20;;
1775;SDS011;885;42.626;23.200;2023-08-06T07:55:54;6.60;;;6.00;;
1775;SDS011;885;42.626;23.200;2023-08-06T07:58:22;7.00;;;5.60;;
1775;SDS011;885;42.626;23.200;2023-08-06T08:00:50;6.23;;;5.37;;
1775;SDS011;885;42.626;23.200;2023-08-06T08:03:17;6.50;;;5.90;;
1775;SDS011;885;42.626;23.200;2023-08-06T08:05:44;6.47;;;5.87;;
1775;SDS011;885;42.626;23.200;2023-08-06T08:08:11;6.40;;;5.87;;
1775;SDS011;885;42.626;23.200;2023-08-06T08:10:39;6.40;;;5.80;;
1775;SDS011;885;42.626;23.200;2023-08-06T08:13:06;6.60;;;6.00;;
1775;SDS011;885;42.626;23.200;2023-08-06T08:15:33;8.60;;;7.00;;
1775;SDS011;885;42.626;23.200;2023-08-06T08:18:01;6.50;;;5.93;;
1775;SDS011;885;42.626;23.200;2023-08-06T08:20:27;7.87;;;6.00;;
1775;SDS011;885;42.626;23.200;2023-08-06T08:22:57;6.30;;;5.50;;
1775;SDS011;885;42.626;23.200;2023-08-06T08:25:25;7.07;;;6.37;;
1775;SDS011;885;42.626;23.200;2023-08-06T08:27:54;6.70;;;6.20;;
1775;SDS011;885;42.626;23.200;2023-08-06T08:30:21;6.07;;;5.50;;
1775;SDS011;885;42.626;23.200;2023-08-06T08:32:50;6.50;;;5.90;;
1775;SDS011;885;42.626;23.200;2023-08-06T08:35:17;6.53;;;5.80;;
1775;SDS011;885;42.626;23.200;2023-08-06T08:37:43;6.23;;;5.83;;
1775;SDS011;885;42.626;23.200;2023-08-06T08:40:10;5.67;;;5.17;;
1775;SDS011;885;42.626;23.200;2023-08-06T08:42:37;6.10;;;5.50;;
1775;SDS011;885;42.626;23.200;2023-08-06T08:45:06;7.10;;;6.40;;
1775;SDS011;885;42.626;23.200;2023-08-06T08:47:40;7.10;;;6.33;;
1775;SDS011;885;42.626;23.200;2023-08-06T08:50:08;6.80;;;6.20;;
1775;SDS011;885;42.626;23.200;2023-08-06T08:52:36;5.10;;;4.70;;
1775;SDS011;885;42.626;23.200;2023-08-06T08:55:05;5.97;;;5.37;;
1775;SDS011;885;42.626;23.200;2023-08-06T08:57:34;5.73;;;5.23;;
1775;SDS011;885;42.626;23.200;2023-08-06T09:00:01;5.10;;;4.70;;
1775;SDS011;885;42.626;23.200;2023-08-06T09:02:29;5.70;;;5.20;;
1775;SDS011;885;42.626;23.200;2023-08-06T09:04:59;6.83;;;5.77;;
1775;SDS011;885;42.626;23.200;2023-08-06T09:07:28;6.37;;;5.60;;
1775;SDS011;885;42.626;23.200;2023-08-06T09:09:58;5.70;;;5.20;;
1775;SDS011;885;42.626;23.200;2023-08-06T09:12:29;6.33;;;5.47;;
1775;SDS011;885;42.626;23.200;2023-08-06T09:14:56;5.77;;;5.27;;
1775;SDS011;885;42.626;23.200;2023-08-06T09:17:23;5.83;;;5.23;;
1775;SDS011;885;42.626;23.200;2023-08-06T09:19:51;6.27;;;5.67;;
1775;SDS011;885;42.626;23.200;2023-08-06T09:22:18;6.90;;;6.30;;
1775;SDS011;885;42.626;23.200;2023-08-06T09:24:45;6.10;;;5.50;;
1775;SDS011;885;42.626;23.200;2023-08-06T09:27:12;5.63;;;5.10;;
1775;SDS011;885;42.626;23.200;2023-08-06T09:29:40;7.00;;;5.57;;
1775;SDS011;885;42.626;23.200;2023-08-06T09:32:08;6.23;;;5.73;;
1775;SDS011;885;42.626;23.200;2023-08-06T09:34:35;6.33;;;5.73;;
1775;SDS011;885;42.626;23.200;2023-08-06T09:37:07;5.53;;;4.80;;
1775;SDS011;885;42.626;23.200;2023-08-06T09:39:36;5.80;;;5.30;;
1775;SDS011;885;42.626;23.200;2023-08-06T09:42:04;5.47;;;4.97;;
1775;SDS011;885;42.626;23.200;2023-08-06T09:44:31;6.93;;;5.40;;
1775;SDS011;885;42.626;23.200;2023-08-06T09:47:00;4.90;;;4.50;;
1775;SDS011;885;42.626;23.200;2023-08-06T09:49:28;5.17;;;4.60;;
1775;SDS011;885;42.626;23.200;2023-08-06T09:52:08;5.43;;;4.93;;
1775;SDS011;885;42.626;23.200;2023-08-06T09:54:41;4.60;;;4.20;;
1775;SDS011;885;42.626;23.200;2023-08-06T09:57:09;5.30;;;4.70;;
1775;SDS011;885;42.626;23.200;2023-08-06T09:59:38;5.43;;;4.47;;
1775;SDS011;885;42.626;23.200;2023-08-06T10:02:13;4.90;;;4.50;;
1775;SDS011;885;42.626;23.200;2023-08-06T10:04:40;5.80;;;5.30;;
1775;SDS011;885;42.626;23.200;2023-08-06T10:07:13;6.50;;;5.50;;
1775;SDS011;885;42.626;23.200;2023-08-06T10:09:41;4.90;;;4.50;;
1775;SDS011;885;42.626;23.200;2023-08-06T10:12:08;4.67;;;3.53;;
1775;SDS011;885;42.626;23.200;2023-08-06T10:14:36;4.33;;;3.90;;
1775;SDS011;885;42.626;23.200;2023-08-06T10:17:05;4.30;;;4.00;;
1775;SDS011;885;42.626;23.200;2023-08-06T10:19:31;4.63;;;4.20;;
1775;SDS011;885;42.626;23.200;2023-08-06T10:22:09;4.63;;;4.10;;
1775;SDS011;885;42.626;23.200;2023-08-06T10:24:51;5.03;;;4.63;;
1775;SDS011;885;42.626;23.200;2023-08-06T10:27:20;5.40;;;4.87;;
1775;SDS011;885;42.626;23.200;2023-08-06T10:29:48;7.10;;;4.97;;
1775;SDS011;885;42.626;23.200;2023-08-06T10:32:15;5.10;;;4.67;;
1775;SDS011;885;42.626;23.200;2023-08-06T10:34:59;5.40;;;4.90;;
1775;SDS011;885;42.626;23.200;2023-08-06T10:37:34;5.13;;;4.63;;
1775;SDS011;885;42.626;23.200;2023-08-06T10:40:05;5.40;;;4.90;;
1775;SDS011;885;42.626;23.200;2023-08-06T10:42:33;6.07;;;4.70;;
1775;SDS011;885;42.626;23.200;2023-08-06T10:45:14;6.30;;;5.70;;
1775;SDS011;885;42.626;23.200;2023-08-06T10:47:41;6.63;;;5.20;;
1775;SDS011;885;42.626;23.200;2023-08-06T10:52:37;7.70;;;7.03;;
1775;SDS011;885;42.626;23.200;2023-08-06T10:55:06;6.63;;;5.77;;
1775;SDS011;885;42.626;23.200;2023-08-06T10:57:34;5.07;;;4.67;;
1775;SDS011;885;42.626;23.200;2023-08-06T11:00:00;10.80;;;5.63;;
1775;SDS011;885;42.626;23.200;2023-08-06T11:02:27;5.07;;;4.67;;
1775;SDS011;885;42.626;23.200;2023-08-06T11:04:54;5.57;;;4.93;;
1775;SDS011;885;42.626;23.200;2023-08-06T11:07:21;4.30;;;3.90;;
1775;SDS011;885;42.626;23.200;2023-08-06T11:09:50;5.17;;;4.77;;
1775;SDS011;885;42.626;23.200;2023-08-06T11:12:19;5.10;;;4.70;;
1775;SDS011;885;42.626;23.200;2023-08-06T11:14:49;5.20;;;4.70;;
1775;SDS011;885;42.626;23.200;2023-08-06T11:17:16;4.90;;;4.50;;
1775;SDS011;885;42.626;23.200;2023-08-06T11:19:44;5.40;;;4.90;;
1775;SDS011;885;42.626;23.200;2023-08-06T11:22:11;4.80;;;4.30;;
1775;SDS011;885;42.626;23.200;2023-08-06T11:24:38;6.20;;;5.13;;
1775;SDS011;885;42.626;23.200;2023-08-06T11:27:10;4.87;;;4.10;;
1775;SDS011;885;42.626;23.200;2023-08-06T11:29:39;4.40;;;4.10;;
1775;SDS011;885;42.626;23.200;2023-08-06T11:32:06;4.93;;;4.43;;
1775;SDS011;885;42.626;23.200;2023-08-06T11:34:34;4.40;;;4.00;;
1775;SDS011;885;42.626;23.200;2023-08-06T11:37:02;4.80;;;4.40;;
1775;SDS011;885;42.626;23.200;2023-08-06T11:39:30;4.60;;;4.00;;
1775;SDS011;885;42.626;23.200;2023-08-06T11:41:57;4.13;;;3.83;;
1775;SDS011;885;42.626;23.200;2023-08-06T11:44:29;5.00;;;4.60;;
1775;SDS011;885;42.626;23.200;2023-08-06T11:46:59;5.87;;;4.50;;
1775;SDS011;885;42.626;23.200;2023-08-06T11:49:37;4.57;;;4.03;;
1775;SDS011;885;42.626;23.200;2023-08-06T11:52:09;4.17;;;3.70;;
1775;SDS011;885;42.626;23.200;2023-08-06T11:54:37;5.03;;;4.63;;
1775;SDS011;885;42.626;23.200;2023-08-06T11:57:05;4.40;;;3.90;;
1775;SDS011;885;42.626;23.200;2023-08-06T11:59:32;4.63;;;4.17;;
1775;SDS011;885;42.626;23.200;2023-08-06T12:02:01;4.90;;;4.30;;
1775;SDS011;885;42.626;23.200;2023-08-06T12:04:30;5.77;;;4.80;;
1775;SDS011;885;42.626;23.200;2023-08-06T12:07:04;5.00;;;4.50;;
1775;SDS011;885;42.626;23.200;2023-08-06T12:09:32;5.17;;;4.17;;
1775;SDS011;885;42.626;23.200;2023-08-06T12:12:01;5.63;;;3.83;;
1775;SDS011;885;42.626;23.200;2023-08-06T12:14:28;4.40;;;4.00;;
1775;SDS011;885;42.626;23.200;2023-08-06T12:16:55;4.70;;;4.30;;
1775;SDS011;885;42.626;23.200;2023-08-06T12:19:23;4.80;;;4.40;;
1775;SDS011;885;42.626;23.200;2023-08-06T12:21:51;5.20;;;4.47;;
1775;SDS011;885;42.626;23.200;2023-08-06T12:24:18;4.33;;;3.50;;
1775;SDS011;885;42.626;23.200;2023-08-06T12:26:44;4.87;;;3.90;;
1775;SDS011;885;42.626;23.200;2023-08-06T12:29:11;4.23;;;3.50;;
1775;SDS011;885;42.626;23.200;2023-08-06T12:31:38;5.47;;;4.60;;
1775;SDS011;885;42.626;23.200;2023-08-06T12:34:05;4.13;;;3.83;;
1775;SDS011;885;42.626;23.200;2023-08-06T12:36:33;5.20;;;3.90;;
1775;SDS011;885;42.626;23.200;2023-08-06T12:39:00;4.23;;;3.83;;
1775;SDS011;885;42.626;23.200;2023-08-06T12:41:26;4.60;;;4.20;;
1775;SDS011;885;42.626;23.200;2023-08-06T12:43:53;4.33;;;3.93;;
1775;SDS011;885;42.626;23.200;2023-08-06T12:46:20;4.30;;;3.90;;
1775;SDS011;885;42.626;23.200;2023-08-06T12:48:47;7.03;;;4.63;;
1775;SDS011;885;42.626;23.200;2023-08-06T12:51:14;5.37;;;3.67;;
1775;SDS011;885;42.626;23.200;2023-08-06T12:53:42;4.97;;;4.47;;
1775;SDS011;885;42.626;23.200;2023-08-06T12:56:09;5.30;;;4.80;;
1775;SDS011;885;42.626;23.200;2023-08-06T12:58:36;5.97;;;5.00;;
1775;SDS011;885;42.626;23.200;2023-08-06T13:01:05;5.10;;;4.60;;
1775;SDS011;885;42.626;23.200;2023-08-06T13:03:31;7.50;;;4.40;;
1775;SDS011;885;42.626;23.200;2023-08-06T13:05:58;4.37;;;3.97;;
1775;SDS011;885;42.626;23.200;2023-08-06T13:08:25;4.83;;;4.20;;
1775;SDS011;885;42.626;23.200;2023-08-06T13:10:53;4.43;;;4.03;;
1775;SDS011;885;42.626;23.200;2023-08-06T13:13:20;9.00;;;4.60;;
1775;SDS011;885;42.626;23.200;2023-08-06T13:15:47;4.57;;;4.10;;
1775;SDS011;885;42.626;23.200;2023-08-06T13:18:14;4.13;;;3.80;;
1775;SDS011;885;42.626;23.200;2023-08-06T13:20:41;4.30;;;3.90;;
1775;SDS011;885;42.626;23.200;2023-08-06T13:23:07;5.10;;;4.40;;
1775;SDS011;885;42.626;23.200;2023-08-06T13:25:34;5.17;;;4.67;;
1775;SDS011;885;42.626;23.200;2023-08-06T13:28:03;7.50;;;4.27;;
1775;SDS011;885;42.626;23.200;2023-08-06T13:30:30;4.57;;;4.17;;
1775;SDS011;885;42.626;23.200;2023-08-06T13:32:57;4.03;;;3.63;;
1775;SDS011;885;42.626;23.200;2023-08-06T13:35:24;4.97;;;4.47;;
1775;SDS011;885;42.626;23.200;2023-08-06T13:37:51;3.97;;;3.57;;
1775;SDS011;885;42.626;23.200;2023-08-06T13:40:19;5.17;;;4.67;;
1775;SDS011;885;42.626;23.200;2023-08-06T13:42:46;57.03;;;41.10;;
1775;SDS011;885;42.626;23.200;2023-08-06T13:45:14;9.03;;;5.53;;
1775;SDS011;885;42.626;23.200;2023-08-06T13:47:41;6.80;;;5.40;;
1775;SDS011;885;42.626;23.200;2023-08-06T13:50:08;19.17;;;12.10;;
1775;SDS011;885;42.626;23.200;2023-08-06T13:52:35;12.70;;;8.80;;
1775;SDS011;885;42.626;23.200;2023-08-06T13:55:02;9.80;;;7.23;;
1775;SDS011;885;42.626;23.200;2023-08-06T13:57:29;9.87;;;6.90;;
1775;SDS011;885;42.626;23.200;2023-08-06T13:59:56;5.00;;;4.27;;
1775;SDS011;885;42.626;23.200;2023-08-06T14:02:24;5.00;;;4.50;;
1775;SDS011;885;42.626;23.200;2023-08-06T14:04:51;6.30;;;5.10;;
1775;SDS011;885;42.626;23.200;2023-08-06T14:07:19;5.90;;;3.80;;
1775;SDS011;885;42.626;23.200;2023-08-06T14:09:46;3.43;;;3.00;;
1775;SDS011;885;42.626;23.200;2023-08-06T14:12:14;4.13;;;3.40;;
1775;SDS011;885;42.626;23.200;2023-08-06T14:14:41;4.43;;;3.00;;
1775;SDS011;885;42.626;23.200;2023-08-06T14:17:08;8.77;;;6.63;;
1775;SDS011;885;42.626;23.200;2023-08-06T14:19:36;16.30;;;7.80;;
1775;SDS011;885;42.626;23.200;2023-08-06T14:22:03;8.13;;;5.30;;
1775;SDS011;885;42.626;23.200;2023-08-06T14:24:29;4.40;;;4.00;;
1775;SDS011;885;42.626;23.200;2023-08-06T14:26:56;3.80;;;3.50;;
1775;SDS011;885;42.626;23.200;2023-08-06T14:29:23;6.30;;;3.30;;
1775;SDS011;885;42.626;23.200;2023-08-06T14:31:50;3.87;;;3.40;;
1775;SDS011;885;42.626;23.200;2023-08-06T14:34:17;2.87;;;2.40;;
1775;SDS011;885;42.626;23.200;2023-08-06T14:36:45;2.83;;;2.63;;
1775;SDS011;885;42.626;23.200;2023-08-06T14:39:12;4.90;;;2.90;;
1775;SDS011;885;42.626;23.200;2023-08-06T14:41:39;4.00;;;3.00;;
1775;SDS011;885;42.626;23.200;2023-08-06T14:44:06;3.10;;;2.80;;
1775;SDS011;885;42.626;23.200;2023-08-06T14:46:33;4.60;;;4.03;;
1775;SDS011;885;42.626;23.200;2023-08-06T14:49:01;3.87;;;3.57;;
1775;SDS011;885;42.626;23.200;2023-08-06T14:51:28;5.07;;;2.67;;
1775;SDS011;885;42.626;23.200;2023-08-06T14:53:56;3.00;;;2.80;;
1775;SDS011;885;42.626;23.200;2023-08-06T14:56:23;3.80;;;2.90;;
1775;SDS011;885;42.626;23.200;2023-08-06T14:58:52;2.80;;;2.60;;
1775;SDS011;885;42.626;23.200;2023-08-06T15:01:19;2.93;;;2.73;;
1775;SDS011;885;42.626;23.200;2023-08-06T15:03:46;4.77;;;2.77;;
1775;SDS011;885;42.626;23.200;2023-08-06T15:06:13;4.20;;;2.60;;
1775;SDS011;885;42.626;23.200;2023-08-06T15:08:45;2.60;;;2.40;;
1775;SDS011;885;42.626;23.200;2023-08-06T15:11:14;2.60;;;2.40;;
1775;SDS011;885;42.626;23.200;2023-08-06T15:13:41;2.50;;;2.10;;
1775;SDS011;885;42.626;23.200;2023-08-06T15:16:08;4.50;;;3.00;;
1775;SDS011;885;42.626;23.200;2023-08-06T15:18:35;4.87;;;2.87;;